createdAt,value
2023-06-27T00:02:47.609Z,9.65
2023-06-27T00:05:50.324Z,8.18
2023-06-27T00:08:52.799Z,7.90
2023-06-27T00:11:55.359Z,12.00
2023-06-27T00:14:58.174Z,9.00
2023-06-27T00:18:00.808Z,10.43
2023-06-27T00:21:03.404Z,11.50
2023-06-27T00:24:06.073Z,10.95
2023-06-27T00:27:08.748Z,9.90
2023-06-27T00:30:11.512Z,11.48
2023-06-27T00:33:14.846Z,10.68
2023-06-27T00:36:17.330Z,12.10
2023-06-27T00:39:20.160Z,8.77
2023-06-27T00:42:22.720Z,9.23
2023-06-27T00:45:25.289Z,9.93
2023-06-27T00:48:27.922Z,14.20
2023-06-27T00:51:31.260Z,9.82
2023-06-27T00:54:34.074Z,12.70
2023-06-27T00:57:36.595Z,10.20
2023-06-27T01:00:40.416Z,10.45
2023-06-27T01:03:44.223Z,9.57
2023-06-27T01:07:15.565Z,9.77
2023-06-27T01:10:50.543Z,8.25
2023-06-27T01:13:57.709Z,9.30
2023-06-27T01:17:00.759Z,10.00
2023-06-27T01:20:03.741Z,8.07
2023-06-27T01:23:15.980Z,9.52
2023-06-27T01:26:18.532Z,11.43
2023-06-27T01:29:21.804Z,11.10
2023-06-27T01:32:39.620Z,9.48
2023-06-27T01:35:50.808Z,11.60
2023-06-27T01:38:57.876Z,11.65
2023-06-27T01:42:05.705Z,13.45
2023-06-27T01:45:09.295Z,9.80
2023-06-27T01:48:12.144Z,9.65
2023-06-27T01:51:15.380Z,12.63
2023-06-27T01:54:17.927Z,10.20
2023-06-27T01:57:20.480Z,11.52
2023-06-27T02:00:23.010Z,10.30
2023-06-27T02:03:25.634Z,10.77
2023-06-27T02:06:28.601Z,10.45
2023-06-27T02:09:31.063Z,10.98
2023-06-27T02:12:35.056Z,12.88
2023-06-27T02:15:37.770Z,9.63
2023-06-27T02:18:40.725Z,10.98
2023-06-27T02:21:44.459Z,14.05
2023-06-27T02:24:47.356Z,13.40
2023-06-27T02:27:49.934Z,10.13
2023-06-27T02:30:52.412Z,10.07
2023-06-27T02:33:54.887Z,10.15
2023-06-27T02:36:57.445Z,14.23
2023-06-27T02:40:01.648Z,10.90
2023-06-27T02:43:07.403Z,11.23
2023-06-27T02:46:09.917Z,9.63
2023-06-27T02:49:12.407Z,10.25
2023-06-27T02:52:14.845Z,12.35
2023-06-27T02:55:17.995Z,13.10
2023-06-27T02:58:20.733Z,11.18
2023-06-27T03:01:23.482Z,13.63
2023-06-27T03:04:26.480Z,10.95
2023-06-27T03:07:29.704Z,14.48
2023-06-27T03:10:32.811Z,11.38
2023-06-27T03:13:36.001Z,12.70
2023-06-27T03:16:38.662Z,12.47
2023-06-27T03:19:45.079Z,15.38
2023-06-27T03:22:50.525Z,13.70
2023-06-27T03:25:53.440Z,11.80
2023-06-27T03:28:57.204Z,14.40
2023-06-27T03:32:00.678Z,17.73
2023-06-27T03:35:04.754Z,15.05
2023-06-27T03:38:07.986Z,18.95
2023-06-27T03:41:10.511Z,12.50
2023-06-27T03:44:13.045Z,11.20
2023-06-27T03:47:15.544Z,11.17
2023-06-27T03:50:18.645Z,11.10
2023-06-27T03:53:21.535Z,15.00
2023-06-27T03:56:24.270Z,13.63
2023-06-27T03:59:26.757Z,11.85
2023-06-27T04:02:29.844Z,12.20
2023-06-27T04:05:32.421Z,9.85
2023-06-27T04:08:35.033Z,11.00
2023-06-27T04:11:37.502Z,11.35
2023-06-27T04:14:40.054Z,10.50
2023-06-27T04:17:43.458Z,14.67
2023-06-27T04:20:46.909Z,13.10
2023-06-27T04:23:51.749Z,15.63
2023-06-27T04:26:54.869Z,12.85
2023-06-27T04:29:58.452Z,13.63
2023-06-27T04:33:02.352Z,15.83
2023-06-27T04:36:05.327Z,17.55
2023-06-27T04:39:11.667Z,15.10
2023-06-27T04:42:15.310Z,20.58
2023-06-27T04:45:17.771Z,14.18
2023-06-27T04:48:20.267Z,13.83
2023-06-27T04:51:22.770Z,10.82
2023-06-27T04:54:25.905Z,12.73
2023-06-27T04:57:28.433Z,13.77
2023-06-27T05:00:30.928Z,11.48
2023-06-27T05:03:33.505Z,10.90
2023-06-27T05:06:36.138Z,13.80
2023-06-27T05:09:38.645Z,13.70
2023-06-27T05:12:41.288Z,14.23
2023-06-27T05:15:44.143Z,16.40
2023-06-27T05:18:47.372Z,12.80
2023-06-27T05:21:49.867Z,12.23
2023-06-27T05:24:52.364Z,12.50
2023-06-27T05:27:55.703Z,9.85
2023-06-27T05:31:16.186Z,13.05
2023-06-27T05:34:18.771Z,9.53
2023-06-27T05:37:21.531Z,11.25
2023-06-27T05:40:23.996Z,13.27
2023-06-27T05:43:26.440Z,10.77
2023-06-27T05:46:29.001Z,11.65
2023-06-27T05:49:31.508Z,9.83
2023-06-27T05:52:33.979Z,11.35
2023-06-27T05:55:36.432Z,10.93
2023-06-27T05:58:39.001Z,10.55
2023-06-27T06:01:42.022Z,11.77
2023-06-27T06:04:44.560Z,9.97
2023-06-27T06:07:47.036Z,12.10
2023-06-27T06:10:51.734Z,13.13
2023-06-27T06:13:54.658Z,13.48
2023-06-27T06:16:57.169Z,14.10
2023-06-27T06:19:59.805Z,13.67
2023-06-27T06:23:02.286Z,12.43
2023-06-27T06:26:04.842Z,13.10
2023-06-27T06:29:09.981Z,14.35
2023-06-27T06:32:12.469Z,13.20
2023-06-27T06:35:14.981Z,13.43
2023-06-27T06:38:17.463Z,12.73
2023-06-27T06:41:20.015Z,12.93
2023-06-27T06:44:22.419Z,12.68
2023-06-27T06:47:24.967Z,15.05
2023-06-27T06:50:27.619Z,14.63
2023-06-27T06:53:30.159Z,15.65
2023-06-27T06:56:32.703Z,16.77
2023-06-27T06:59:35.286Z,14.77
2023-06-27T07:02:37.833Z,13.85
2023-06-27T07:05:43.455Z,13.77
2023-06-27T07:08:46.022Z,16.00
2023-06-27T07:11:51.287Z,18.45
2023-06-27T07:14:53.966Z,18.45
2023-06-27T07:17:57.012Z,14.73
2023-06-27T07:20:59.525Z,16.23
2023-06-27T07:24:02.416Z,15.77
2023-06-27T07:27:05.323Z,11.80
2023-06-27T07:30:08.616Z,12.32
2023-06-27T07:33:11.388Z,10.00
2023-06-27T07:36:13.955Z,10.70
2023-06-27T07:39:16.470Z,10.35
2023-06-27T07:42:18.984Z,12.10
2023-06-27T07:45:21.668Z,9.60
2023-06-27T07:48:24.289Z,11.32
2023-06-27T07:51:30.016Z,11.47
2023-06-27T07:54:32.494Z,12.15
2023-06-27T07:57:35.612Z,8.73
2023-06-27T08:00:40.376Z,10.52
2023-06-27T08:03:43.346Z,9.63
2023-06-27T08:06:46.145Z,12.03
2023-06-27T08:09:48.728Z,9.70
2023-06-27T08:12:51.368Z,8.55
2023-06-27T08:15:53.927Z,9.35
2023-06-27T08:18:56.879Z,9.18
2023-06-27T08:21:59.294Z,10.07
2023-06-27T08:25:01.781Z,8.80
2023-06-27T08:28:04.563Z,7.72
2023-06-27T08:31:07.066Z,8.18
2023-06-27T08:34:09.656Z,7.88
2023-06-27T08:37:12.554Z,8.70
2023-06-27T08:40:22.208Z,7.22
2023-06-27T08:43:25.582Z,8.15
2023-06-27T08:46:29.387Z,7.93
2023-06-27T08:49:34.835Z,9.40
2023-06-27T08:52:51.224Z,8.53
2023-06-27T08:56:06.385Z,8.30
2023-06-27T08:59:12.607Z,14.50
2023-06-27T09:02:15.507Z,8.82
2023-06-27T09:05:18.335Z,7.22
2023-06-27T09:08:21.748Z,7.60
2023-06-27T09:11:26.764Z,9.27
2023-06-27T09:14:29.452Z,9.65
2023-06-27T09:17:32.121Z,7.30
2023-06-27T09:20:34.759Z,9.77
2023-06-27T09:23:37.566Z,9.23
2023-06-27T09:26:39.981Z,7.88
2023-06-27T09:29:44.626Z,6.97
2023-06-27T09:32:54.999Z,7.07
2023-06-27T09:36:01.945Z,6.45
2023-06-27T09:39:06.861Z,7.10
2023-06-27T09:42:09.495Z,6.75
2023-06-27T09:45:17.785Z,8.32
2023-06-27T09:48:20.298Z,7.95
2023-06-27T09:51:26.100Z,8.45
2023-06-27T09:54:28.568Z,7.37
2023-06-27T09:57:31.413Z,9.02
2023-06-27T10:00:33.874Z,8.38
2023-06-27T10:03:37.479Z,8.70
2023-06-27T10:06:40.518Z,9.40
2023-06-27T10:09:43.444Z,7.60
2023-06-27T10:12:46.610Z,9.05
2023-06-27T10:15:49.476Z,7.53
2023-06-27T10:18:53.928Z,7.70
2023-06-27T10:21:56.436Z,7.03
2023-06-27T10:25:18.109Z,5.57
2023-06-27T10:28:22.452Z,6.10
2023-06-27T10:31:38.572Z,5.50
2023-06-27T10:34:42.972Z,6.93
2023-06-27T10:38:05.605Z,5.65
2023-06-27T10:41:13.264Z,8.80
2023-06-27T10:44:18.931Z,6.40
2023-06-27T10:47:21.472Z,8.57
2023-06-27T10:50:24.103Z,6.75
2023-06-27T10:53:26.776Z,10.35
2023-06-27T10:56:30.286Z,7.67
2023-06-27T10:59:35.184Z,6.55
2023-06-27T11:02:42.824Z,5.75
2023-06-27T11:05:55.990Z,7.85
2023-06-27T11:08:58.553Z,7.40
2023-06-27T11:12:12.948Z,6.50
2023-06-27T11:15:15.560Z,7.07
2023-06-27T11:18:20.083Z,8.20
2023-06-27T11:21:23.377Z,6.22
2023-06-27T11:24:25.986Z,6.40
2023-06-27T11:27:31.736Z,6.17
2023-06-27T11:30:34.826Z,7.20
2023-06-27T11:33:37.319Z,5.90
2023-06-27T11:36:40.277Z,6.72
2023-06-27T11:39:54.063Z,7.07
2023-06-27T11:43:07.516Z,5.70
2023-06-27T11:46:10.022Z,6.55
2023-06-27T11:49:12.500Z,10.82
2023-06-27T11:52:17.054Z,7.30
2023-06-27T11:55:19.688Z,8.20
2023-06-27T11:58:33.142Z,7.47
2023-06-27T12:01:42.991Z,6.97
2023-06-27T12:04:45.562Z,6.65
2023-06-27T12:08:08.101Z,6.93
2023-06-27T12:11:10.858Z,6.22
2023-06-27T12:14:22.328Z,6.20
2023-06-27T12:17:25.212Z,7.07
2023-06-27T12:20:41.208Z,7.07
2023-06-27T12:23:44.016Z,7.45
2023-06-27T12:26:46.953Z,8.80
2023-06-27T12:29:49.406Z,6.00
2023-06-27T12:32:52.017Z,7.65
2023-06-27T12:35:54.669Z,5.40
2023-06-27T12:38:57.171Z,5.65
2023-06-27T12:41:59.648Z,9.38
2023-06-27T12:45:02.215Z,7.47
2023-06-27T12:48:04.931Z,7.75
2023-06-27T12:51:08.289Z,7.25
2023-06-27T12:54:10.911Z,7.03
2023-06-27T12:57:13.436Z,7.65
2023-06-27T13:00:21.254Z,6.60
2023-06-27T13:03:24.811Z,7.20
2023-06-27T13:06:27.457Z,6.40
2023-06-27T13:09:29.978Z,7.18
2023-06-27T13:12:32.555Z,7.18
2023-06-27T13:15:42.052Z,8.40
2023-06-27T13:18:48.528Z,7.85
2023-06-27T13:21:52.898Z,9.10
2023-06-27T13:24:57.706Z,7.40
2023-06-27T13:28:00.391Z,7.57
2023-06-27T13:31:03.396Z,7.13
2023-06-27T13:34:06.109Z,6.75
2023-06-27T13:37:09.269Z,6.95
2023-06-27T13:40:12.718Z,8.35
2023-06-27T13:48:54.492Z,8.73
2023-06-27T13:51:57.421Z,12.02
2023-06-27T13:54:59.917Z,8.23
2023-06-27T13:58:02.677Z,8.05
2023-06-27T14:01:05.241Z,7.55
2023-06-27T14:04:07.751Z,6.80
2023-06-27T14:07:10.735Z,7.30
2023-06-27T14:10:13.487Z,11.90
2023-06-27T14:13:16.403Z,9.65
2023-06-27T14:16:19.733Z,8.38
2023-06-27T14:19:22.206Z,7.47
2023-06-27T14:22:24.772Z,7.03
2023-06-27T14:25:28.199Z,7.10
2023-06-27T14:28:31.989Z,6.38
2023-06-27T14:31:34.503Z,6.88
2023-06-27T14:34:37.983Z,7.83
2023-06-27T14:37:40.777Z,6.30
2023-06-27T14:40:43.436Z,7.53
2023-06-27T14:43:46.021Z,5.22
2023-06-27T14:46:48.851Z,4.70
2023-06-27T14:49:51.332Z,5.83
2023-06-27T14:52:53.854Z,4.78
2023-06-27T14:55:56.345Z,6.00
2023-06-27T14:58:58.882Z,5.40
2023-06-27T15:02:01.509Z,5.47
2023-06-27T15:05:04.120Z,7.43
2023-06-27T15:08:06.827Z,5.22
2023-06-27T15:11:09.308Z,5.38
2023-06-27T15:14:11.798Z,5.40
2023-06-27T15:17:14.225Z,5.85
2023-06-27T15:20:16.622Z,4.00
2023-06-27T15:23:25.750Z,5.03
2023-06-27T15:26:35.978Z,4.85
2023-06-27T15:29:39.294Z,3.97
2023-06-27T15:32:41.758Z,4.10
2023-06-27T15:35:44.499Z,4.23
2023-06-27T15:38:47.954Z,3.28
2023-06-27T15:41:50.373Z,4.07
2023-06-27T15:44:53.053Z,4.10
2023-06-27T15:47:55.498Z,5.05
2023-06-27T15:50:59.952Z,4.83
2023-06-27T15:54:02.770Z,4.43
2023-06-27T15:57:06.080Z,5.28
2023-06-27T16:00:09.291Z,4.60
2023-06-27T16:03:18.379Z,4.82
2023-06-27T16:06:21.053Z,5.33
2023-06-27T16:09:23.513Z,4.93
2023-06-27T16:12:26.062Z,4.93
2023-06-27T16:15:28.651Z,5.95
2023-06-27T16:18:31.096Z,6.15
2023-06-27T16:21:37.553Z,4.43
2023-06-27T16:24:40.089Z,4.60
2023-06-27T16:27:42.570Z,5.13
2023-06-27T16:30:45.538Z,5.57
2023-06-27T16:33:50.426Z,4.68
2023-06-27T16:36:52.827Z,5.90
2023-06-27T16:39:55.262Z,4.43
2023-06-27T16:42:57.711Z,6.05
2023-06-27T16:46:00.203Z,6.88
2023-06-27T16:49:02.724Z,4.80
2023-06-27T16:52:05.720Z,6.07
2023-06-27T16:55:09.022Z,5.68
2023-06-27T16:58:11.549Z,5.90
2023-06-27T17:01:14.008Z,6.38
2023-06-27T17:04:16.456Z,5.85
2023-06-27T17:07:19.013Z,6.07
2023-06-27T17:10:21.608Z,6.35
2023-06-27T17:13:25.785Z,5.40
2023-06-27T17:16:28.236Z,5.68
2023-06-27T17:19:31.033Z,5.72
2023-06-27T17:22:33.629Z,5.67
2023-06-27T17:25:36.014Z,5.95
2023-06-27T17:28:38.501Z,6.57
2023-06-27T17:31:41.211Z,6.28
2023-06-27T17:34:43.709Z,6.10
2023-06-27T17:37:46.204Z,5.43
2023-06-27T17:40:48.950Z,5.35
2023-06-27T17:43:51.453Z,6.32
2023-06-27T17:46:54.150Z,5.97
2023-06-27T17:49:56.601Z,7.80
2023-06-27T17:53:00.242Z,7.87
2023-06-27T17:56:02.738Z,9.23
2023-06-27T17:59:05.169Z,6.82
2023-06-27T18:02:07.744Z,5.82
2023-06-27T18:05:10.423Z,5.10
2023-06-27T18:08:16.903Z,4.27
2023-06-27T18:11:19.432Z,4.38
2023-06-27T18:14:22.000Z,5.43
2023-06-27T18:17:24.424Z,6.20
2023-06-27T18:20:26.900Z,5.07
2023-06-27T18:23:29.714Z,5.40
2023-06-27T18:26:33.616Z,4.82
2023-06-27T18:29:36.282Z,6.30
2023-06-27T18:32:41.165Z,4.72
2023-06-27T18:35:43.770Z,4.78
2023-06-27T18:38:46.504Z,7.17
2023-06-27T18:41:50.046Z,5.32
2023-06-27T18:44:52.530Z,6.05
2023-06-27T18:47:55.102Z,6.88
2023-06-27T18:50:58.044Z,6.93
2023-06-27T18:54:00.575Z,7.10
2023-06-27T18:57:05.186Z,6.90
2023-06-27T19:00:08.417Z,8.63
2023-06-27T19:03:11.116Z,8.23
2023-06-27T19:06:13.990Z,8.45
2023-06-27T19:09:20.072Z,7.00
2023-06-27T19:12:22.941Z,6.45
2023-06-27T19:15:25.711Z,6.25
2023-06-27T19:18:28.159Z,6.78
2023-06-27T19:21:31.444Z,7.50
2023-06-27T19:24:34.463Z,7.80
2023-06-27T19:27:36.941Z,6.75
2023-06-27T19:30:39.605Z,7.43
2023-06-27T19:33:44.643Z,5.97
2023-06-27T19:36:47.156Z,6.82
2023-06-27T19:39:49.986Z,6.97
2023-06-27T19:42:52.676Z,7.50
2023-06-27T19:45:55.315Z,7.03
2023-06-27T19:48:58.936Z,7.90
2023-06-27T19:52:01.555Z,7.70
2023-06-27T19:55:04.318Z,8.77
2023-06-27T19:58:07.251Z,6.95
2023-06-27T20:01:10.070Z,9.10
2023-06-27T20:04:12.647Z,11.52
2023-06-27T20:07:15.640Z,11.30
2023-06-27T20:10:19.933Z,10.60
2023-06-27T20:13:22.716Z,11.45
2023-06-27T20:16:26.292Z,16.83
2023-06-27T20:19:29.048Z,13.75
2023-06-27T20:22:31.633Z,11.95
2023-06-27T20:25:34.131Z,10.07
2023-06-27T20:28:36.674Z,8.02
2023-06-27T20:31:39.429Z,15.82
2023-06-27T20:34:42.579Z,10.13
2023-06-27T20:37:45.085Z,9.25
2023-06-27T20:40:47.641Z,10.43
2023-06-27T20:43:53.779Z,9.63
2023-06-27T20:46:56.259Z,9.02
2023-06-27T20:49:58.863Z,9.82
2023-06-27T20:53:01.349Z,11.13
2023-06-27T20:56:03.992Z,14.07
2023-06-27T20:59:06.448Z,11.13
2023-06-27T21:02:09.952Z,11.93
2023-06-27T21:05:12.462Z,11.90
2023-06-27T21:08:14.936Z,12.50
2023-06-27T21:11:17.488Z,12.77
2023-06-27T21:14:20.047Z,9.77
2023-06-27T21:17:28.475Z,12.70
2023-06-27T21:20:30.947Z,11.48
2023-06-27T21:23:33.953Z,10.10
2023-06-27T21:26:36.413Z,8.53
2023-06-27T21:29:38.888Z,10.95
2023-06-27T21:32:41.403Z,8.93
2023-06-27T21:35:43.895Z,14.10
2023-06-27T21:38:46.648Z,10.98
2023-06-27T21:41:49.174Z,12.33
2023-06-27T21:44:51.688Z,10.15
2023-06-27T21:47:54.670Z,14.25
2023-06-27T21:50:57.166Z,12.15
2023-06-27T21:53:59.667Z,12.10
2023-06-27T21:57:02.164Z,12.17
2023-06-27T22:00:07.400Z,12.40
2023-06-27T22:03:12.736Z,11.18
2023-06-27T22:06:15.330Z,12.48
2023-06-27T22:09:17.821Z,13.25
2023-06-27T22:12:21.600Z,15.40
2023-06-27T22:15:24.178Z,13.80
2023-06-27T22:18:27.032Z,13.45
2023-06-27T22:21:29.507Z,14.50
2023-06-27T22:24:32.548Z,13.63
2023-06-27T22:27:35.008Z,15.43
2023-06-27T22:30:37.606Z,12.95
2023-06-27T22:33:40.119Z,12.80
2023-06-27T22:36:42.651Z,11.93
2023-06-27T22:39:45.959Z,11.35
2023-06-27T22:42:48.415Z,12.40
2023-06-27T22:45:51.037Z,12.32
2023-06-27T22:48:53.937Z,11.75
2023-06-27T22:51:56.497Z,11.70
2023-06-27T22:55:00.033Z,11.13
2023-06-27T22:58:02.496Z,12.13
2023-06-27T23:01:05.867Z,10.45
2023-06-27T23:04:08.345Z,9.88
2023-06-27T23:07:10.845Z,11.43
2023-06-27T23:10:13.341Z,10.05
2023-06-27T23:13:15.883Z,8.93
2023-06-27T23:16:18.929Z,9.88
2023-06-27T23:19:23.816Z,7.65
2023-06-27T23:22:26.290Z,9.88
2023-06-27T23:25:28.823Z,12.00
2023-06-27T23:28:31.293Z,8.17
2023-06-27T23:31:35.977Z,9.43
2023-06-27T23:34:38.892Z,10.35
2023-06-27T23:37:41.666Z,8.95
2023-06-27T23:40:44.396Z,8.23
2023-06-27T23:43:47.017Z,11.77
2023-06-27T23:46:49.644Z,8.38
2023-06-27T23:49:52.208Z,8.43
2023-06-27T23:52:54.665Z,8.68
2023-06-27T23:55:57.147Z,9.05
2023-06-27T23:58:59.668Z,11.33
